Time;durP1;ratioP1;P1;durP2;ratioP2;P2;SDS_P1;SDS_P2;PMS_P1;PMS_P2;Temp;Humidity;BMP_temperature;BMP_pressure;BME280_temperature;BME280_humidity;BME280_pressure;Samples;Min_cycle;Max_cycle;Signal;HPM_P1;HPM_P2
2022/12/02 00:01:22;;;;;;;17.85;12.20;;;;;;;-1.36;75.04;101877.47;3293544;84;21106;-72
2022/12/02 00:06:30;;;;;;;18.48;12.15;;;;;;;-1.35;74.92;101876.72;3316196;84;21018;-72
2022/12/02 00:11:35;;;;;;;13.28;8.70;;;;;;;-1.45;74.67;101875.42;3309683;84;21373;-72
2022/12/02 00:16:25;;;;;;;17.25;10.55;;;;;;;-1.54;74.59;101867.53;3296153;84;21039;-70
2022/12/02 00:21:17;;;;;;;15.60;11.38;;;;;;;-1.57;74.56;101858.73;3318058;84;21607;-70
2022/12/02 00:26:08;;;;;;;16.87;11.00;;;;;;;-1.55;74.84;101857.20;3301642;84;21065;-70
2022/12/02 00:30:59;;;;;;;18.75;11.43;;;;;;;-1.57;74.58;101866.38;3295745;84;20951;-70
2022/12/02 00:35:50;;;;;;;14.58;10.43;;;;;;;-1.61;74.62;101866.50;3278183;84;21070;-70
2022/12/02 00:40:41;;;;;;;14.38;10.05;;;;;;;-1.60;74.85;101870.83;3325876;83;21069;-70
2022/12/02 00:50:42;;;;;;;15.93;10.45;;;;;;;-1.59;74.74;101860.23;3303295;83;21049;-70
2022/12/02 00:55:33;;;;;;;18.52;11.73;;;;;;;-1.58;74.84;101865.47;3296256;83;21020;-70
2022/12/02 01:00:24;;;;;;;16.70;10.95;;;;;;;-1.58;74.78;101866.73;3329098;83;21018;-70
2022/12/02 01:05:16;;;;;;;17.92;11.43;;;;;;;-1.57;74.94;101858.34;3282051;83;21588;-69
2022/12/02 01:10:07;;;;;;;17.05;12.60;;;;;;;-1.51;74.92;101863.45;3310765;83;22036;-70
2022/12/02 01:14:59;;;;;;;20.23;11.85;;;;;;;-1.49;74.90;101863.19;3334557;83;20970;-70
2022/12/02 01:19:50;;;;;;;18.25;10.85;;;;;;;-1.48;74.89;101859.89;3366903;83;21000;-70
2022/12/02 01:24:41;;;;;;;20.55;13.48;;;;;;;-1.44;74.91;101850.44;3347133;83;22760;-70
2022/12/02 01:29:31;;;;;;;16.52;12.47;;;;;;;-1.47;74.73;101858.71;3356822;83;21081;-69
2022/12/02 01:34:23;;;;;;;16.73;10.60;;;;;;;-1.47;74.77;101855.28;3280854;83;21749;-70
2022/12/02 01:39:14;;;;;;;20.48;12.18;;;;;;;-1.48;74.67;101849.69;3346687;83;21006;-70
2022/12/02 01:44:05;;;;;;;21.23;13.55;;;;;;;-1.46;74.62;101848.15;3263371;84;21243;-70
2022/12/02 01:48:56;;;;;;;20.23;12.73;;;;;;;-1.47;74.53;101840.85;3310285;84;20975;-70
2022/12/02 01:53:47;;;;;;;18.17;12.60;;;;;;;-1.48;74.52;101835.66;3295072;84;20987;-70
2022/12/02 01:58:39;;;;;;;18.32;12.65;;;;;;;-1.48;74.51;101828.88;3305388;84;21316;-70
2022/12/02 02:03:30;;;;;;;18.42;11.63;;;;;;;-1.47;74.17;101825.94;3299264;84;20908;-70
2022/12/02 02:08:22;;;;;;;17.32;11.93;;;;;;;-1.51;74.15;101831.17;3290128;84;21690;-70
2022/12/02 02:13:16;;;;;;;17.25;12.53;;;;;;;-1.54;74.16;101831.83;3291603;84;21098;-70
2022/12/02 02:18:09;;;;;;;17.23;11.65;;;;;;;-1.60;73.88;101824.03;3287389;84;22029;-71
2022/12/02 02:23:09;;;;;;;19.98;13.40;;;;;;;-1.66;73.72;101820.95;3287958;84;21308;-70
2022/12/02 02:28:02;;;;;;;17.40;12.40;;;;;;;-1.70;73.78;101826.57;3334314;84;21031;-71
2022/12/02 02:32:55;;;;;;;20.12;12.98;;;;;;;-1.75;73.76;101814.73;3301931;84;20975;-71
2022/12/02 02:37:49;;;;;;;19.25;13.65;;;;;;;-1.74;73.86;101819.05;3311452;84;21054;-71
2022/12/02 02:42:44;;;;;;;17.32;12.53;;;;;;;-1.70;73.85;101828.73;3267467;86;21288;-71
2022/12/02 02:47:35;;;;;;;19.17;13.00;;;;;;;-1.67;74.02;101820.06;3263277;86;21410;-71
2022/12/02 02:52:26;;;;;;;18.42;13.10;;;;;;;-1.64;73.84;101817.78;3293233;86;20986;-71
2022/12/02 02:57:17;;;;;;;17.05;12.43;;;;;;;-1.63;73.79;101823.37;3287120;86;20974;-71
2022/12/02 03:02:13;;;;;;;19.57;13.15;;;;;;;-1.60;73.92;101821.09;3282417;85;21066;-71
2022/12/02 03:07:05;;;;;;;24.45;13.62;;;;;;;-1.57;73.90;101814.98;3296021;86;21001;-71
2022/12/02 03:11:58;;;;;;;19.70;13.43;;;;;;;-1.54;73.97;101807.59;3283450;86;21003;-71
2022/12/02 03:16:50;;;;;;;21.07;14.10;;;;;;;-1.50;73.92;101809.09;3314031;84;21552;-71
2022/12/02 03:21:41;;;;;;;24.75;14.00;;;;;;;-1.49;73.88;101806.68;3287738;86;21645;-71
2022/12/02 03:26:34;;;;;;;19.55;14.80;;;;;;;-1.49;74.04;101800.30;3293753;86;22026;-71
2022/12/02 03:31:26;;;;;;;20.68;15.03;;;;;;;-1.48;73.97;101794.84;3294023;84;20998;-72
2022/12/02 03:36:18;;;;;;;21.87;14.68;;;;;;;-1.48;73.93;101796.12;3271865;86;21065;-71
2022/12/02 03:41:10;;;;;;;23.40;14.50;;;;;;;-1.46;73.92;101793.30;3275540;84;21000;-71
2022/12/02 03:46:03;;;;;;;23.18;16.20;;;;;;;-1.45;73.98;101788.33;3305880;84;21010;-71
2022/12/02 03:50:56;;;;;;;26.48;17.73;;;;;;;-1.44;73.93;101784.99;3273540;85;21568;-70
2022/12/02 03:55:48;;;;;;;25.75;15.63;;;;;;;-1.48;73.90;101796.12;3361220;83;21037;-71
2022/12/02 04:00:39;;;;;;;20.77;16.35;;;;;;;-1.56;73.85;101795.09;3373725;82;21089;-71
2022/12/02 04:05:31;;;;;;;24.40;15.40;;;;;;;-1.60;73.81;101798.14;3333214;82;20990;-71
2022/12/02 04:10:22;;;;;;;22.98;14.55;;;;;;;-1.65;73.68;101796.86;3395442;82;21006;-71
2022/12/02 04:15:14;;;;;;;21.93;14.47;;;;;;;-1.70;73.78;101794.30;3351102;83;21260;-71
2022/12/02 04:20:07;;;;;;;21.73;15.20;;;;;;;-1.74;73.79;101796.98;3257645;85;20991;-71
2022/12/02 04:25:01;;;;;;;22.20;14.00;;;;;;;-1.79;73.71;101792.27;3238099;85;22045;-71
2022/12/02 04:29:52;;;;;;;22.95;13.35;;;;;;;-1.81;73.76;101784.88;3305804;83;21517;-71
2022/12/02 04:34:44;;;;;;;18.77;12.68;;;;;;;-1.84;73.71;101786.80;3205947;85;21027;-71
2022/12/02 04:39:35;;;;;;;18.05;13.20;;;;;;;-1.89;73.55;101785.52;3297348;83;21317;-71
2022/12/02 04:44:26;;;;;;;19.55;12.85;;;;;;;-1.89;73.69;101780.81;3308357;83;20960;-71
2022/12/02 04:49:18;;;;;;;18.95;12.15;;;;;;;-1.88;73.54;101783.84;3293668;83;21588;-71
2022/12/02 04:54:10;;;;;;;21.15;13.08;;;;;;;-1.92;73.54;101783.97;3283780;84;21869;-71
2022/12/02 04:59:01;;;;;;;18.95;13.20;;;;;;;-1.92;73.67;101787.41;3386293;82;21577;-71
2022/12/02 05:03:52;;;;;;;19.73;14.10;;;;;;;-1.87;73.81;101783.09;3384189;82;20987;-71
2022/12/02 05:08:43;;;;;;;21.20;12.60;;;;;;;-1.87;73.72;101783.98;3397878;82;21441;-71
2022/12/02 05:13:35;;;;;;;18.60;12.80;;;;;;;-1.82;73.78;101792.03;3400887;83;22137;-71
2022/12/02 05:18:26;;;;;;;16.37;12.65;;;;;;;-1.81;73.77;101793.80;3413465;81;21004;-71
2022/12/02 05:23:17;;;;;;;16.87;11.80;;;;;;;-1.85;73.39;101798.14;3413484;82;21335;-71
2022/12/02 05:28:08;;;;;;;17.87;11.75;;;;;;;-1.94;73.25;101794.42;3404486;82;25439;-71
2022/12/02 05:32:58;;;;;;;20.37;11.78;;;;;;;-1.96;73.38;101791.75;3376692;82;20965;-71
2022/12/02 05:37:49;;;;;;;18.42;11.97;;;;;;;-1.96;73.44;101796.84;3369347;82;21026;-72
2022/12/02 05:42:42;;;;;;;20.35;12.00;;;;;;;-1.99;73.44;101791.87;3349057;83;20956;-71
2022/12/02 05:47:34;;;;;;;17.70;11.43;;;;;;;-1.99;73.45;101797.84;3350978;83;21003;-71
2022/12/02 05:52:28;;;;;;;16.75;11.53;;;;;;;-1.98;73.33;101792.00;3360246;83;21563;-72
2022/12/02 05:57:24;;;;;;;16.25;11.78;;;;;;;-1.99;73.36;101802.06;3328566;83;21019;-72
2022/12/02 06:02:23;;;;;;;17.25;11.57;;;;;;;-2.04;73.33;101816.06;3319527;83;21548;-72
2022/12/02 06:07:15;;;;;;;14.85;11.43;;;;;;;-2.05;73.32;101808.81;3347776;83;21019;-72
2022/12/02 06:12:14;;;;;;;18.73;11.95;;;;;;;-2.04;73.27;101826.27;3352960;83;20999;-71
2022/12/02 06:17:15;;;;;;;20.32;12.53;;;;;;;-2.05;73.24;101824.10;3326572;83;21014;-71
2022/12/02 06:22:20;;;;;;;17.92;12.53;;;;;;;-2.06;73.19;101835.05;3381553;83;20963;-71
2022/12/02 06:27:14;;;;;;;18.20;13.43;;;;;;;-2.05;73.37;101830.48;3392521;83;22017;-72
2022/12/02 06:32:09;;;;;;;20.00;13.08;;;;;;;-2.05;73.41;101838.13;3360808;83;21136;-71
2022/12/02 06:37:21;;;;;;;24.80;14.70;;;;;;;-2.08;73.33;101836.58;3358478;83;21014;-71
2022/12/02 06:42:24;;;;;;;17.75;11.80;;;;;;;-2.08;73.41;101842.06;3380274;83;21537;-71
2022/12/02 06:47:44;;;;;;;23.95;16.25;;;;;;;-2.10;73.48;101850.84;3366218;83;21026;-71
2022/12/02 06:52:43;;;;;;;20.77;13.55;;;;;;;-2.09;73.56;101847.55;3369264;83;21072;-71
2022/12/02 06:57:35;;;;;;;25.23;16.15;;;;;;;-2.09;73.46;101850.09;3328060;83;21064;-72
2022/12/02 07:02:30;;;;;;;28.02;17.90;;;;;;;-2.13;73.36;101855.67;3332337;83;21529;-71
2022/12/02 07:07:30;;;;;;;26.27;16.52;;;;;;;-2.15;73.52;101855.92;3375660;83;21012;-71
2022/12/02 07:12:37;;;;;;;25.80;16.32;;;;;;;-2.19;73.47;101860.25;3367040;83;20932;-72
2022/12/02 07:17:38;;;;;;;19.10;13.23;;;;;;;-2.18;73.54;101855.65;3326369;83;21548;-71
2022/12/02 07:22:40;;;;;;;20.92;14.07;;;;;;;-2.18;73.49;101856.92;3326626;83;21278;-71
2022/12/02 07:27:36;;;;;;;19.45;14.13;;;;;;;-2.21;73.43;101864.33;3355130;83;21033;-72
2022/12/02 07:32:27;;;;;;;22.60;13.83;;;;;;;-2.21;73.41;101866.88;3347348;83;20983;-71
2022/12/02 07:37:19;;;;;;;22.35;14.15;;;;;;;-2.19;73.58;101862.80;3327222;83;20927;-71
2022/12/02 07:42:10;;;;;;;26.73;16.25;;;;;;;-2.16;73.56;101865.62;3351934;82;21275;-70
2022/12/02 07:47:02;;;;;;;23.05;15.60;;;;;;;-2.14;73.34;101869.19;3351563;83;21393;-71
2022/12/02 07:51:53;;;;;;;26.50;16.35;;;;;;;-2.23;73.21;101876.05;3330394;83;20989;-72
2022/12/02 07:56:44;;;;;;;25.55;15.78;;;;;;;-2.26;73.45;101871.95;3322127;84;21856;-71
2022/12/02 08:01:35;;;;;;;26.75;16.23;;;;;;;-2.32;73.48;101871.92;3312172;83;21048;-73
2022/12/02 08:06:26;;;;;;;18.40;11.53;;;;;;;-2.33;73.66;101865.03;3332327;83;21979;-73
2022/12/02 08:11:17;;;;;;;24.32;16.00;;;;;;;-2.30;73.82;101863.14;3368771;83;21018;-72
2022/12/02 08:16:10;;;;;;;22.05;15.48;;;;;;;-2.23;73.93;101862.03;3320413;83;20986;-73
2022/12/02 08:21:01;;;;;;;23.87;15.43;;;;;;;-2.18;73.73;101867.11;3325114;83;21018;-72
2022/12/02 08:25:52;;;;;;;24.45;15.72;;;;;;;-2.20;73.53;101857.17;3304015;83;21050;-73
2022/12/02 08:30:43;;;;;;;24.47;15.15;;;;;;;-2.22;73.58;101858.31;3371313;83;21457;-72
2022/12/02 08:35:33;;;;;;;26.25;16.50;;;;;;;-2.34;73.32;101860.71;3347376;83;21074;-73
2022/12/02 08:40:25;;;;;;;28.92;16.55;;;;;;;-2.35;73.74;101860.19;3376205;83;20947;-72
2022/12/02 08:45:16;;;;;;;26.52;16.20;;;;;;;-2.30;73.68;101855.11;3364083;83;21001;-71
2022/12/02 08:50:08;;;;;;;25.60;14.10;;;;;;;-2.25;73.72;101860.97;3360545;83;21519;-71
2022/12/02 08:54:59;;;;;;;26.70;15.28;;;;;;;-2.25;73.38;101859.70;3339927;83;21163;-72
2022/12/02 08:59:53;;;;;;;20.05;12.73;;;;;;;-2.27;73.50;101864.70;3371364;83;20994;-72
2022/12/02 09:04:45;;;;;;;23.05;14.13;;;;;;;-2.26;73.42;101861.76;3288060;84;21021;-71
2022/12/02 09:09:36;;;;;;;19.52;13.38;;;;;;;-2.24;73.50;101857.68;3371550;83;20979;-72
2022/12/02 09:14:28;;;;;;;20.12;11.50;;;;;;;-2.24;73.51;101852.20;3337649;83;21041;-72
2022/12/02 09:19:19;;;;;;;26.07;16.02;;;;;;;-2.18;73.62;101845.45;3352688;83;21919;-71
2022/12/02 09:24:10;;;;;;;28.57;15.98;;;;;;;-2.15;73.32;101852.10;3305030;83;20995;-71
2022/12/02 09:29:01;;;;;;;22.07;15.98;;;;;;;-2.18;73.34;101846.73;3298816;83;21052;-70
2022/12/02 09:33:52;;;;;;;24.65;15.80;;;;;;;-2.21;73.32;101848.65;3313715;84;21106;-72
2022/12/02 09:38:43;;;;;;;25.23;15.68;;;;;;;-2.21;73.27;101846.48;3337895;83;21001;-72
2022/12/02 09:43:35;;;;;;;24.43;15.32;;;;;;;-2.20;73.30;101844.44;3270363;84;20919;-72
2022/12/02 09:48:28;;;;;;;20.77;13.62;;;;;;;-2.17;73.42;101851.08;3272723;85;21237;-72
2022/12/02 09:53:22;;;;;;;30.35;16.82;;;;;;;-2.13;73.41;101858.22;3290691;85;21982;-71
2022/12/02 09:58:20;;;;;;;26.80;16.12;;;;;;;-2.21;73.17;101842.28;3250267;87;20967;-72
2022/12/02 10:03:15;;;;;;;25.68;15.98;;;;;;;-2.20;73.32;101847.90;3295313;84;21029;-72
2022/12/02 10:08:19;;;;;;;27.10;16.37;;;;;;;-2.18;73.16;101840.36;3291269;86;22102;-72
2022/12/02 10:13:14;;;;;;;24.72;15.58;;;;;;;-2.22;73.18;101842.14;3317694;84;20999;-71
2022/12/02 10:18:15;;;;;;;24.00;16.23;;;;;;;-2.23;73.13;101846.74;3308042;84;20982;-72
2022/12/02 10:23:14;;;;;;;28.17;15.63;;;;;;;-2.30;73.08;101841.09;3257994;84;20982;-72
2022/12/02 10:28:23;;;;;;;27.50;18.40;;;;;;;-2.31;73.07;101837.14;3250191;84;21037;-72
2022/12/02 10:33:14;;;;;;;28.47;17.65;;;;;;;-2.33;73.30;101834.45;3305888;84;21229;-72
2022/12/02 10:38:28;;;;;;;27.48;17.98;;;;;;;-2.31;73.30;101828.23;3302855;84;28887;-71
2022/12/02 10:43:19;;;;;;;37.58;15.03;;;;;;;-2.31;73.20;101832.97;3330820;82;21024;-71
2022/12/02 10:48:17;;;;;;;24.80;16.02;;;;;;;-2.34;73.21;101827.59;3309126;83;20994;-71
2022/12/02 10:53:15;;;;;;;30.88;16.75;;;;;;;-2.36;73.33;101835.48;3347345;83;21040;-72
2022/12/02 10:58:09;;;;;;;;;;;;;;;-2.35;73.27;101832.16;3376042;83;21247;-72
2022/12/02 11:03:04;;;;;;;25.75;15.38;;;;;;;-2.33;73.32;101823.38;3322468;83;21142;-71
2022/12/02 11:08:00;;;;;;;31.20;17.07;;;;;;;-2.32;73.55;101826.45;3373322;84;20990;-73
2022/12/02 11:12:58;;;;;;;29.10;18.53;;;;;;;-2.25;73.51;101831.67;3354692;83;21447;-73
2022/12/02 11:17:51;;;;;;;27.95;16.90;;;;;;;-2.23;73.40;101834.00;3372111;83;21563;-72
2022/12/02 11:23:05;;;;;;;28.75;16.75;;;;;;;-2.26;73.31;101830.80;3319360;83;21014;-73
2022/12/02 11:28:29;;;;;;;25.75;16.25;;;;;;;-2.27;73.40;101824.29;3314132;85;20975;-73
2022/12/02 11:33:53;;;;;;;27.62;16.37;;;;;;;-2.26;73.40;101824.81;3367930;83;21107;-72
2022/12/02 11:38:55;;;;;;;26.90;16.23;;;;;;;-2.21;73.43;101831.20;3342986;83;22201;-72
2022/12/02 11:44:01;;;;;;;25.08;16.05;;;;;;;-2.19;73.38;101820.37;3376291;83;20976;-73
2022/12/02 11:48:55;;;;;;;26.20;16.35;;;;;;;-2.19;73.28;101820.76;3318687;83;22676;-73
2022/12/02 11:53:51;;;;;;;20.92;13.80;;;;;;;-2.23;73.25;101822.15;3201229;85;21084;-72
2022/12/02 11:58:44;;;;;;;28.07;16.65;;;;;;;-2.22;73.30;101817.94;3345378;83;21006;-73
2022/12/02 12:03:44;;;;;;;29.65;16.95;;;;;;;-2.27;73.25;101815.38;3300161;83;20983;-71
2022/12/02 12:08:43;;;;;;;26.05;16.70;;;;;;;-2.25;73.33;101811.30;3299705;83;20977;-71
2022/12/02 12:13:38;;;;;;;29.23;15.70;;;;;;;-2.23;73.28;101809.80;3319346;83;22212;-72
2022/12/02 12:18:45;;;;;;;28.20;17.67;;;;;;;-2.24;73.37;101802.91;3358071;83;20983;-71
2022/12/02 12:23:41;;;;;;;28.30;18.50;;;;;;;-2.21;73.44;101803.17;3324158;84;20971;-71
2022/12/02 12:28:36;;;;;;;29.95;16.50;;;;;;;-2.23;73.33;101799.61;3317406;83;21026;-71
2022/12/02 12:33:28;;;;;;;26.68;16.62;;;;;;;-2.23;73.42;101797.06;3328373;83;21010;-74
2022/12/02 12:38:21;;;;;;;26.12;17.02;;;;;;;-2.27;73.23;101797.18;3261848;83;21161;-73
2022/12/02 12:43:12;;;;;;;23.10;15.83;;;;;;;-2.33;73.35;101792.42;3317886;83;21035;-71
2022/12/02 12:48:04;;;;;;;32.28;19.50;;;;;;;-2.38;73.30;101796.26;3350391;82;21009;-72
2022/12/02 12:52:55;;;;;;;29.40;17.65;;;;;;;-2.46;73.43;101804.88;3347531;82;21337;-71
2022/12/02 12:57:46;;;;;;;34.08;19.70;;;;;;;-2.43;73.69;101796.23;3351270;83;20989;-71
2022/12/02 13:02:37;;;;;;;30.37;19.70;;;;;;;-2.40;73.66;101795.20;3323834;83;22515;-71
2022/12/02 13:07:28;;;;;;;34.00;19.60;;;;;;;-2.37;73.63;101796.75;3406520;82;21615;-72
2022/12/02 13:12:19;;;;;;;39.58;22.70;;;;;;;-2.39;73.60;101797.39;3384930;82;21003;-70
2022/12/02 13:17:10;;;;;;;39.30;22.20;;;;;;;-2.46;73.66;101792.14;3354903;82;26025;-70
2022/12/02 13:22:01;;;;;;;38.02;21.93;;;;;;;-2.45;73.86;101797.77;3350672;82;21022;-71
2022/12/02 13:26:52;;;;;;;38.00;21.10;;;;;;;-2.43;73.97;101801.33;3387815;82;21087;-71
2022/12/02 13:31:43;;;;;;;37.98;21.68;;;;;;;-2.43;73.97;101805.51;3420188;82;20930;-72
2022/12/02 13:36:34;;;;;;;38.75;21.30;;;;;;;-2.44;74.07;101802.08;3376090;82;20937;-71
2022/12/02 13:41:26;;;;;;;30.80;17.85;;;;;;;-2.44;74.11;101804.62;3410958;82;22249;-72
2022/12/02 13:46:17;;;;;;;36.48;19.37;;;;;;;-2.45;74.00;101809.58;3363426;82;20983;-71
2022/12/02 13:51:08;;;;;;;35.48;21.37;;;;;;;-2.47;74.14;101813.66;3381455;81;21951;-72
2022/12/02 13:55:59;;;;;;;35.20;19.23;;;;;;;-2.47;74.16;101816.20;3334479;83;21386;-71
2022/12/02 14:00:50;;;;;;;31.35;20.23;;;;;;;-2.47;74.08;101804.35;3295133;84;21041;-72
2022/12/02 14:05:41;;;;;;;35.10;20.88;;;;;;;-2.47;74.08;101804.35;3328774;83;21736;-73
2022/12/02 14:10:32;;;;;;;38.63;20.82;;;;;;;-2.47;74.29;101809.45;3291302;83;21000;-73
2022/12/02 14:15:24;;;;;;;39.13;24.25;;;;;;;-2.49;74.43;101816.06;3354986;83;20983;-73
2022/12/02 14:20:15;;;;;;;41.18;23.15;;;;;;;-2.47;74.49;101817.48;3237390;87;21469;-71
2022/12/02 14:25:07;;;;;;;41.50;24.70;;;;;;;-2.51;74.46;101821.02;3310785;84;21022;-73
2022/12/02 14:29:58;;;;;;;42.60;24.10;;;;;;;-2.54;74.57;101818.59;3379207;83;20977;-71
2022/12/02 14:34:49;;;;;;;38.48;21.77;;;;;;;-2.54;74.73;101818.23;3363813;83;21130;-72
2022/12/02 14:39:40;;;;;;;39.80;22.67;;;;;;;-2.52;74.85;101815.82;3320758;82;20979;-71
2022/12/02 14:44:31;;;;;;;38.92;22.05;;;;;;;-2.56;74.80;101811.20;3357865;82;21002;-71
2022/12/02 14:49:22;;;;;;;43.28;23.15;;;;;;;-2.58;74.83;101815.27;3352864;83;21335;-73
2022/12/02 14:54:13;;;;;;;44.42;23.12;;;;;;;-2.63;74.86;101824.16;3340508;83;21567;-72
2022/12/02 14:59:04;;;;;;;39.20;22.37;;;;;;;-2.71;74.84;101823.10;3341295;83;21014;-72
2022/12/02 15:03:55;;;;;;;42.40;23.32;;;;;;;-2.81;74.93;101831.95;3383298;83;20919;-72
2022/12/02 15:08:46;;;;;;;33.88;19.23;;;;;;;-2.88;75.17;101833.09;3325853;84;21213;-71
2022/12/02 15:13:37;;;;;;;36.35;19.87;;;;;;;-2.91;75.35;101831.53;3314042;83;21036;-72
2022/12/02 15:18:28;;;;;;;36.08;20.70;;;;;;;-2.89;75.51;101827.86;3310051;83;21098;-72
2022/12/02 15:23:19;;;;;;;37.08;18.55;;;;;;;-2.88;75.52;101827.08;3329182;84;20973;-72
2022/12/02 15:28:10;;;;;;;36.33;18.95;;;;;;;-2.93;75.57;101830.89;3330670;84;22044;-72
2022/12/02 15:33:01;;;;;;;40.05;19.00;;;;;;;-2.96;75.69;101833.16;3344433;84;21058;-72
2022/12/02 15:37:52;;;;;;;38.70;18.73;;;;;;;-3.00;75.85;101831.11;3381121;83;21002;-71
2022/12/02 15:42:43;;;;;;;34.67;18.87;;;;;;;-2.99;76.00;101840.52;3388815;83;21679;-71
2022/12/02 15:47:34;;;;;;;39.85;20.30;;;;;;;-3.00;76.22;101837.47;3369807;83;20998;-72
2022/12/02 15:52:25;;;;;;;33.53;19.77;;;;;;;-3.03;76.39;101844.44;3355391;83;21435;-72
2022/12/02 15:57:16;;;;;;;29.27;17.00;;;;;;;-2.99;76.71;101840.52;3364418;83;21619;-72
2022/12/02 16:02:10;;;;;;;33.50;17.05;;;;;;;-2.98;76.74;101843.20;3340361;83;21259;-71
2022/12/02 16:07:01;;;;;;;31.85;16.70;;;;;;;-2.99;76.92;101844.33;3363018;83;21243;-72
2022/12/02 16:11:52;;;;;;;25.75;15.65;;;;;;;-2.97;77.02;101840.27;3379637;83;21042;-72
2022/12/02 16:16:43;;;;;;;30.95;16.70;;;;;;;-3.02;76.97;101846.23;3321468;83;21010;-72
2022/12/02 16:21:34;;;;;;;34.35;18.17;;;;;;;-3.01;77.18;101843.30;3359772;83;21002;-73
2022/12/02 16:26:25;;;;;;;36.05;19.82;;;;;;;-3.00;77.18;101837.08;3357225;83;20966;-72
2022/12/02 16:31:16;;;;;;;37.30;20.50;;;;;;;-3.02;77.24;101842.77;3335443;83;21082;-72
2022/12/02 16:36:08;;;;;;;38.28;21.25;;;;;;;-3.02;77.41;101837.68;3357473;83;20998;-73
2022/12/02 16:41:00;;;;;;;32.63;18.48;;;;;;;-2.97;77.46;101839.91;3333781;83;21476;-73
2022/12/02 16:45:51;;;;;;;39.83;23.00;;;;;;;-3.02;77.38;101838.60;3357810;83;20939;-73
2022/12/02 16:50:41;;;;;;;39.70;22.62;;;;;;;-3.04;77.57;101846.84;3303744;82;20920;-73
2022/12/02 16:55:32;;;;;;;41.63;22.45;;;;;;;-3.01;77.77;101840.76;3326042;83;21662;-74
2022/12/02 17:00:24;;;;;;;40.38;22.35;;;;;;;-2.97;77.82;101842.81;3297844;83;21557;-72
2022/12/02 17:05:15;;;;;;;41.95;22.30;;;;;;;-2.98;77.80;101842.31;3400916;83;21168;-73
2022/12/02 17:10:08;;;;;;;44.63;22.33;;;;;;;-2.97;78.08;101835.17;3338414;83;20936;-72
2022/12/02 17:14:59;;;;;;;40.70;21.40;;;;;;;-2.97;78.18;101842.81;3218558;85;21215;-74
2022/12/02 17:19:50;;;;;;;34.65;19.65;;;;;;;-3.01;78.05;101836.55;3229797;85;24819;-74
2022/12/02 17:24:41;;;;;;;35.70;20.30;;;;;;;-3.03;78.26;101846.09;3363973;83;21085;-73
2022/12/02 17:29:32;;;;;;;35.70;19.12;;;;;;;-3.04;78.49;101839.20;3405760;83;21026;-73
2022/12/02 17:34:23;;;;;;;34.50;19.10;;;;;;;-3.03;78.60;101851.19;3357557;83;21694;-73
2022/12/02 17:39:16;;;;;;;38.28;20.92;;;;;;;-3.02;78.64;101858.04;3368354;83;20990;-73
2022/12/02 17:44:07;;;;;;;33.55;19.73;;;;;;;-3.02;78.74;101849.13;3367057;82;21532;-73
2022/12/02 17:48:58;;;;;;;31.48;19.45;;;;;;;-3.00;78.89;101852.73;3342438;83;21051;-73
2022/12/02 17:53:49;;;;;;;38.33;20.85;;;;;;;-2.96;78.99;101853.52;3331081;83;21788;-73
2022/12/02 17:58:40;;;;;;;38.08;22.85;;;;;;;-2.97;78.91;101846.63;3351400;83;20947;-73
2022/12/02 18:03:31;;;;;;;35.33;21.37;;;;;;;-2.96;78.98;101850.97;3331041;83;21005;-73
2022/12/02 18:08:22;;;;;;;37.60;21.62;;;;;;;-2.99;79.03;101845.59;3300440;83;21525;-73
2022/12/02 18:13:13;;;;;;;36.45;20.88;;;;;;;-2.95;79.31;101842.56;3366919;83;21029;-73
2022/12/02 18:18:05;;;;;;;39.92;22.90;;;;;;;-2.93;79.36;101847.05;3361564;83;21010;-73
2022/12/02 18:22:56;;;;;;;41.77;22.22;;;;;;;-2.92;79.46;101848.81;3341249;83;21010;-73
2022/12/02 18:27:47;;;;;;;42.33;22.13;;;;;;;-2.90;79.41;101851.50;3328924;84;21151;-73
2022/12/02 18:32:38;;;;;;;39.65;22.73;;;;;;;-2.92;79.64;101847.94;3303487;83;21006;-73
2022/12/02 18:37:29;;;;;;;34.03;20.77;;;;;;;-2.90;79.70;101848.61;3374542;83;21618;-72
2022/12/02 18:42:19;;;;;;;42.88;24.23;;;;;;;-2.88;79.80;101847.44;3349083;83;20987;-73
2022/12/02 18:47:10;;;;;;;41.18;23.52;;;;;;;-2.85;79.89;101845.17;3391227;82;20961;-73
2022/12/02 18:52:02;;;;;;;45.43;23.32;;;;;;;-2.84;79.78;101846.98;3383495;81;20988;-72
2022/12/02 18:56:53;;;;;;;43.92;23.60;;;;;;;-2.84;79.78;101846.06;3414936;81;21007;-72
2022/12/02 19:01:44;;;;;;;35.60;21.40;;;;;;;-2.87;79.89;101839.95;3410018;81;21014;-72
2022/12/02 19:06:35;;;;;;;43.08;21.87;;;;;;;-2.86;79.94;101838.31;3394328;82;21735;-72
2022/12/02 19:11:27;;;;;;;38.00;20.17;;;;;;;-2.87;80.01;101831.03;3335804;82;33443;-72
2022/12/02 19:16:18;;;;;;;43.40;23.40;;;;;;;-2.82;80.22;101837.82;3386661;81;21171;-72
2022/12/02 19:21:09;;;;;;;46.18;24.98;;;;;;;-2.78;80.25;101841.53;3337945;82;20982;-71
2022/12/02 19:26:04;;;;;;;42.58;22.77;;;;;;;-2.78;80.12;101837.33;3344778;81;21527;-72
2022/12/02 19:30:56;;;;;;;44.73;23.65;;;;;;;-2.77;80.16;101836.58;3320990;81;21619;-72
2022/12/02 19:35:47;;;;;;;49.90;24.45;;;;;;;-2.77;80.24;101833.12;3365071;81;21512;-73
2022/12/02 19:40:40;;;;;;;49.55;23.50;;;;;;;-2.79;80.20;101831.73;3372158;81;20986;-72
2022/12/02 19:45:31;;;;;;;47.13;22.95;;;;;;;-2.80;80.26;101831.21;3347296;81;21624;-72
2022/12/02 19:50:22;;;;;;;45.00;21.95;;;;;;;-2.77;80.39;101836.94;3343037;83;21144;-72
2022/12/02 19:55:14;;;;;;;45.83;23.35;;;;;;;-2.80;80.34;101837.57;3334226;83;21218;-72
2022/12/02 20:00:08;;;;;;;48.68;23.45;;;;;;;-2.79;80.47;101838.10;3332222;83;21011;-72
2022/12/02 20:05:01;;;;;;;47.30;24.27;;;;;;;-2.80;80.43;101840.12;3366568;82;20959;-71
2022/12/02 20:09:52;;;;;;;43.15;22.22;;;;;;;-2.78;80.54;101827.14;3323460;83;21026;-72
2022/12/02 20:14:43;;;;;;;45.98;23.65;;;;;;;-2.81;80.63;101829.41;3360085;83;21407;-72
2022/12/02 20:19:34;;;;;;;49.20;25.05;;;;;;;-2.73;80.65;101830.98;3314129;83;21014;-71
2022/12/02 20:24:25;;;;;;;56.98;25.62;;;;;;;-2.71;80.68;101833.28;3344989;83;21238;-72
2022/12/02 20:29:16;;;;;;;46.60;22.70;;;;;;;-2.69;80.75;101837.25;3323259;83;21025;-71
2022/12/02 20:34:07;;;;;;;84.77;42.23;;;;;;;-2.69;80.78;101836.86;3356761;83;21014;-72
2022/12/02 20:38:58;;;;;;;52.08;25.10;;;;;;;-2.69;80.81;101834.31;3355914;83;21102;-72
2022/12/02 20:43:49;;;;;;;51.00;25.52;;;;;;;-2.67;80.82;101835.72;3347149;83;21418;-72
2022/12/02 20:48:40;;;;;;;50.12;25.08;;;;;;;-2.67;80.74;101827.20;3404487;82;21033;-71
2022/12/02 20:53:31;;;;;;;47.67;25.17;;;;;;;-2.66;80.81;101835.34;3377391;82;21009;-71
2022/12/02 20:58:22;;;;;;;52.65;26.27;;;;;;;-2.67;80.90;101832.30;3374991;82;21006;-71
2022/12/02 21:03:13;;;;;;;54.25;25.88;;;;;;;-2.65;80.99;101835.86;3343252;83;21014;-71
2022/12/02 21:08:04;;;;;;;57.48;27.82;;;;;;;-2.63;80.92;101827.97;3277591;85;21130;-72
2022/12/02 21:12:55;;;;;;;52.55;26.97;;;;;;;-2.61;80.99;101820.08;3325599;83;21426;-71
2022/12/02 21:17:48;;;;;;;60.20;28.25;;;;;;;-2.58;81.06;101828.00;3362816;82;20993;-72
2022/12/02 21:22:39;;;;;;;49.38;25.08;;;;;;;-2.57;81.00;101822.16;3330727;82;21696;-73
2022/12/02 21:27:30;;;;;;;52.23;26.00;;;;;;;-2.58;80.82;101826.73;3340460;82;20974;-71
2022/12/02 21:32:24;;;;;;;65.75;30.40;;;;;;;-2.57;80.99;101831.96;3382103;82;21025;-73
2022/12/02 21:37:15;;;;;;;55.65;26.70;;;;;;;-2.54;81.00;101835.14;3346799;82;21022;-73
2022/12/02 21:42:07;;;;;;;46.58;26.82;;;;;;;-2.52;80.97;101834.53;3355628;82;20962;-73
2022/12/02 21:46:58;;;;;;;53.45;27.62;;;;;;;-2.47;80.99;101829.82;3327305;83;21008;-72
2022/12/02 21:51:49;;;;;;;50.00;27.15;;;;;;;-2.50;80.93;101830.46;3327947;83;20947;-72
2022/12/02 21:56:41;;;;;;;49.98;27.02;;;;;;;-2.46;80.90;101827.80;3367431;83;21351;-72
2022/12/02 22:01:40;;;;;;;49.30;27.10;;;;;;;-2.45;80.78;101829.95;3308549;83;21006;-72
2022/12/02 22:06:31;;;;;;;48.95;26.52;;;;;;;-2.43;80.86;101830.63;3353004;83;20954;-72
2022/12/02 22:11:23;;;;;;;49.85;25.45;;;;;;;-2.43;80.77;101821.70;3373977;83;21010;-73
2022/12/02 22:16:14;;;;;;;52.40;27.27;;;;;;;-2.42;80.73;101826.02;3337225;83;22266;-73